createdAt,value
2019-02-15T00:01:20.144Z,8.20
2019-02-15T00:06:26.690Z,8.20
2019-02-15T00:11:32.644Z,8.20
2019-02-15T00:16:38.496Z,8.20
2019-02-15T00:21:46.933Z,8.10
2019-02-15T00:26:52.860Z,8.10
2019-02-15T00:31:58.960Z,8.10
2019-02-15T00:37:07.856Z,8.10
2019-02-15T00:42:13.886Z,8.00
2019-02-15T00:47:41.768Z,8.00
2019-02-15T00:52:53.678Z,8.00
2019-02-15T00:58:10.112Z,7.90
2019-02-15T01:03:33.918Z,7.90
2019-02-15T01:08:56.189Z,7.80
2019-02-15T01:14:02.255Z,7.80
2019-02-15T01:19:10.113Z,7.70
2019-02-15T01:24:16.355Z,7.70
2019-02-15T01:29:37.139Z,7.60
2019-02-15T01:35:07.480Z,7.60
2019-02-15T01:40:28.547Z,7.50
2019-02-15T01:45:42.177Z,7.50
2019-02-15T01:50:48.365Z,7.50
2019-02-15T01:55:54.314Z,7.50
2019-02-15T02:01:02.375Z,7.50
2019-02-15T02:06:08.490Z,7.40
2019-02-15T02:11:14.576Z,7.40
2019-02-15T02:16:20.443Z,7.40
2019-02-15T02:21:26.517Z,7.40
2019-02-15T02:26:34.585Z,7.40
2019-02-15T02:31:40.573Z,7.40
2019-02-15T02:36:51.044Z,7.40
2019-02-15T02:41:57.216Z,7.40
2019-02-15T02:47:03.109Z,7.30
2019-02-15T02:52:09.372Z,7.30
2019-02-15T02:57:15.842Z,7.30
2019-02-15T03:02:21.845Z,7.20
2019-02-15T03:07:27.961Z,7.20
2019-02-15T03:12:33.926Z,7.10
2019-02-15T03:17:39.953Z,7.10
2019-02-15T03:22:47.032Z,7.00
2019-02-15T03:27:53.075Z,7.00
2019-02-15T03:32:59.326Z,7.00
2019-02-15T03:38:10.536Z,6.90
2019-02-15T03:43:17.385Z,6.90
2019-02-15T03:48:24.473Z,6.80
2019-02-15T03:53:30.551Z,6.80
2019-02-15T03:58:36.710Z,6.80
2019-02-15T04:03:42.850Z,6.70
2019-02-15T04:08:48.803Z,6.60
2019-02-15T04:13:54.710Z,6.60
2019-02-15T04:19:00.792Z,6.60
2019-02-15T04:24:06.759Z,6.60
2019-02-15T04:29:12.620Z,6.60
2019-02-15T04:34:19.451Z,6.60
2019-02-15T04:39:25.614Z,6.60
2019-02-15T04:44:31.729Z,6.60
2019-02-15T04:49:40.514Z,6.60
2019-02-15T04:54:48.553Z,6.60
2019-02-15T04:59:54.499Z,6.60
2019-02-15T05:05:00.609Z,6.50
2019-02-15T05:10:08.726Z,6.50
2019-02-15T05:15:14.851Z,6.50
2019-02-15T05:20:20.913Z,6.50
2019-02-15T05:25:28.850Z,6.40
2019-02-15T05:30:35.258Z,6.40
2019-02-15T05:35:41.374Z,6.40
2019-02-15T05:40:47.513Z,6.40
2019-02-15T05:45:53.620Z,6.40
2019-02-15T05:51:00.984Z,6.40
2019-02-15T05:56:07.410Z,6.40
2019-02-15T06:01:13.589Z,6.30
2019-02-15T06:06:19.866Z,6.30
2019-02-15T06:11:26.289Z,6.30
2019-02-15T06:16:32.202Z,6.30
2019-02-15T06:21:38.329Z,6.30
2019-02-15T06:26:44.538Z,6.40
2019-02-15T06:31:50.526Z,6.40
2019-02-15T06:36:56.534Z,6.40
2019-02-15T06:42:03.781Z,6.30
2019-02-15T06:47:10.477Z,6.30
2019-02-15T06:52:16.521Z,6.30
2019-02-15T06:57:22.580Z,6.30
2019-02-15T07:02:36.149Z,6.20
2019-02-15T07:07:43.333Z,6.20
2019-02-15T07:12:49.438Z,6.20
2019-02-15T07:17:55.403Z,6.20
2019-02-15T07:23:01.491Z,6.30
2019-02-15T07:28:07.769Z,6.30
2019-02-15T07:33:13.781Z,6.40
2019-02-15T07:38:19.809Z,6.60
2019-02-15T07:43:26.127Z,6.80
2019-02-15T07:48:32.036Z,7.10
2019-02-15T07:53:38.216Z,7.20
2019-02-15T07:58:44.287Z,7.40
2019-02-15T08:03:50.398Z,7.60
2019-02-15T08:08:58.286Z,7.90
2019-02-15T08:14:04.432Z,8.10
2019-02-15T08:19:10.558Z,8.30
2019-02-15T08:24:16.591Z,8.60
2019-02-15T08:29:23.023Z,8.90
2019-02-15T08:34:29.211Z,9.10
2019-02-15T08:39:36.461Z,9.40
2019-02-15T08:44:42.752Z,9.80
2019-02-15T08:49:48.726Z,10.30
2019-02-15T08:54:54.760Z,10.70
2019-02-15T09:00:00.863Z,11.20
2019-02-15T09:05:09.760Z,12.10
2019-02-15T09:10:15.773Z,12.50
2019-02-15T09:15:22.568Z,13.00
2019-02-15T09:20:28.910Z,13.00
2019-02-15T09:25:34.925Z,13.30
2019-02-15T09:30:40.905Z,14.50
2019-02-15T09:35:46.924Z,15.10
2019-02-15T09:40:52.932Z,16.10
2019-02-15T09:46:09.644Z,16.60
2019-02-15T09:51:15.906Z,17.00
2019-02-15T09:56:21.878Z,17.70
2019-02-15T10:01:28.155Z,18.70
2019-02-15T10:06:34.201Z,19.20
2019-02-15T10:11:40.229Z,19.30
2019-02-15T10:16:46.152Z,20.30
2019-02-15T10:21:52.233Z,20.70
2019-02-15T10:26:58.181Z,21.70
2019-02-15T10:32:04.647Z,21.80
2019-02-15T10:37:11.446Z,21.50
2019-02-15T10:42:17.681Z,21.60
2019-02-15T10:47:25.267Z,21.70
2019-02-15T10:52:31.559Z,18.50
2019-02-15T10:57:37.775Z,16.80
2019-02-15T11:02:43.729Z,16.00
2019-02-15T11:07:49.899Z,15.40
2019-02-15T11:12:56.621Z,15.00
2019-02-15T11:18:02.818Z,14.80
2019-02-15T11:23:08.929Z,14.30
2019-02-15T11:28:14.996Z,14.10
2019-02-15T11:33:21.133Z,13.90
2019-02-15T11:38:27.102Z,13.90
2019-02-15T11:43:33.571Z,13.90
2019-02-15T11:48:39.548Z,13.80
2019-02-15T11:53:45.882Z,13.70
2019-02-15T11:58:52.117Z,13.70
2019-02-15T12:03:58.377Z,13.60
2019-02-15T12:09:05.677Z,13.50
2019-02-15T12:14:11.824Z,13.60
2019-02-15T12:19:18.069Z,13.60
2019-02-15T12:24:24.250Z,13.50
2019-02-15T12:29:30.570Z,13.50
2019-02-15T12:34:37.789Z,13.50
2019-02-15T12:39:45.013Z,13.50
2019-02-15T12:44:52.777Z,13.50
2019-02-15T12:49:58.934Z,13.50
2019-02-15T12:55:05.084Z,13.60
2019-02-15T13:00:13.568Z,13.60
2019-02-15T13:05:19.659Z,13.60
2019-02-15T13:10:28.284Z,13.60
2019-02-15T13:15:34.554Z,13.60
2019-02-15T13:20:40.673Z,13.80
2019-02-15T13:25:46.741Z,13.70
2019-02-15T13:30:52.904Z,13.80
2019-02-15T13:35:59.100Z,13.90
2019-02-15T13:41:06.369Z,14.00
2019-02-15T13:46:12.477Z,14.00
2019-02-15T13:51:18.524Z,14.10
2019-02-15T13:56:32.246Z,14.10
2019-02-15T14:01:38.557Z,14.20
2019-02-15T14:06:53.370Z,14.30
2019-02-15T14:12:00.174Z,14.30
2019-02-15T14:17:06.323Z,14.30
2019-02-15T14:22:12.420Z,14.40
2019-02-15T14:27:18.561Z,14.30
2019-02-15T14:32:24.674Z,14.40
2019-02-15T14:37:31.902Z,14.20
2019-02-15T14:42:38.354Z,14.30
2019-02-15T14:47:54.009Z,14.30
2019-02-15T14:52:52.258Z,14.40
2019-02-15T14:57:58.427Z,14.40
2019-02-15T15:03:04.878Z,14.40
2019-02-15T15:08:11.042Z,14.40
2019-02-15T15:13:17.214Z,14.40
2019-02-15T15:18:23.521Z,14.40
2019-02-15T15:23:29.703Z,14.40
2019-02-15T15:28:36.041Z,14.40
2019-02-15T15:33:42.088Z,14.40
2019-02-15T15:38:48.371Z,14.40
2019-02-15T15:43:54.647Z,14.40
2019-02-15T15:49:00.710Z,14.40
2019-02-15T15:54:06.796Z,14.30
2019-02-15T15:59:13.948Z,14.30
2019-02-15T16:04:20.375Z,14.40
2019-02-15T16:09:27.264Z,14.30
2019-02-15T16:14:33.410Z,14.20
2019-02-15T16:19:48.842Z,14.20
2019-02-15T16:24:47.290Z,14.20
2019-02-15T16:29:55.969Z,14.10
2019-02-15T16:35:02.153Z,14.10
2019-02-15T16:40:11.766Z,14.00
2019-02-15T16:45:17.853Z,13.90
2019-02-15T16:50:24.034Z,13.90
2019-02-15T16:55:30.093Z,13.90
2019-02-15T17:00:36.415Z,13.70
2019-02-15T17:05:42.739Z,13.70
2019-02-15T17:10:49.101Z,13.60
2019-02-15T17:15:55.193Z,13.60
2019-02-15T17:26:29.459Z,13.50
2019-02-15T17:31:35.568Z,13.50
2019-02-15T17:36:41.559Z,13.40
2019-02-15T17:41:48.060Z,13.30
2019-02-15T17:46:54.312Z,13.30
2019-02-15T17:52:00.480Z,13.20
2019-02-15T17:57:09.020Z,13.20
2019-02-15T18:02:16.092Z,13.10
2019-02-15T18:07:22.185Z,13.10
2019-02-15T18:12:28.419Z,13.00
2019-02-15T18:17:35.430Z,13.00
2019-02-15T18:22:41.797Z,13.00
2019-02-15T18:27:48.107Z,12.90
2019-02-15T18:32:54.147Z,12.90
2019-02-15T18:38:00.348Z,12.90
2019-02-15T18:43:08.194Z,12.90
2019-02-15T18:48:14.339Z,12.80
2019-02-15T18:53:20.775Z,12.80
2019-02-15T18:58:27.057Z,12.80
2019-02-15T19:03:33.242Z,12.80
2019-02-15T19:08:39.385Z,12.70
2019-02-15T19:13:45.523Z,12.70
2019-02-15T19:18:51.653Z,12.60
2019-02-15T19:23:58.953Z,12.60
2019-02-15T19:29:05.282Z,12.50
2019-02-15T19:34:11.597Z,12.40
2019-02-15T19:39:18.977Z,12.40
2019-02-15T19:44:26.121Z,12.40
2019-02-15T19:49:38.454Z,12.30
2019-02-15T19:54:41.580Z,12.30
2019-02-15T19:59:53.644Z,12.20
2019-02-15T20:04:55.764Z,12.10
2019-02-15T20:10:01.814Z,12.10
2019-02-15T20:15:10.162Z,12.00
2019-02-15T20:20:16.385Z,12.00
2019-02-15T20:25:22.592Z,11.90
2019-02-15T20:30:28.817Z,11.80
2019-02-15T20:35:34.990Z,11.80
2019-02-15T20:40:41.428Z,11.70
2019-02-15T20:45:47.684Z,11.70
2019-02-15T20:50:54.133Z,11.60
2019-02-15T20:56:02.139Z,11.60
2019-02-15T21:01:08.176Z,11.60
2019-02-15T21:06:16.964Z,11.50
2019-02-15T21:11:23.187Z,11.50
2019-02-15T21:16:29.494Z,11.40
2019-02-15T21:21:35.717Z,11.40
2019-02-15T21:26:41.833Z,11.30
2019-02-15T21:31:51.065Z,11.30
2019-02-15T21:36:58.279Z,11.30
2019-02-15T21:42:04.623Z,11.30
2019-02-15T21:47:12.878Z,11.20
2019-02-15T21:52:19.002Z,11.20
2019-02-15T21:57:25.137Z,11.20
2019-02-15T22:02:31.772Z,11.20
2019-02-15T22:07:38.184Z,11.20
2019-02-15T22:12:44.422Z,11.40
2019-02-15T22:17:50.654Z,11.40
2019-02-15T22:22:56.887Z,11.40
2019-02-15T22:28:04.433Z,11.40
2019-02-15T22:33:10.642Z,11.40
2019-02-15T22:38:17.016Z,11.30
2019-02-15T22:43:24.616Z,11.30
2019-02-15T22:48:31.014Z,11.30
2019-02-15T22:53:37.173Z,11.30
2019-02-15T22:58:43.889Z,11.20
2019-02-15T23:03:50.233Z,11.10
2019-02-15T23:08:56.612Z,11.00
2019-02-15T23:14:04.857Z,10.90
2019-02-15T23:19:11.038Z,10.80
2019-02-15T23:24:18.506Z,10.70
2019-02-15T23:29:24.767Z,10.60
2019-02-15T23:34:31.330Z,10.60
2019-02-15T23:39:38.431Z,10.40
2019-02-15T23:44:44.806Z,10.50
2019-02-15T23:49:51.103Z,10.40
2019-02-15T23:54:58.504Z,10.30
